Main page
METAR-TAF:

METAR-TAF

Airports :

Capitán FAP Víctor Montes Arias International Airport

Talara, Peru

latitude: 04-34S, longitude: 081-15W, elevation: 85 m

Current weather observation

The report was made 34 minutes ago, at 15:00 UTC
Wind 15 kt from the South/Southeast
Temperature 24°C
Humidity 65%
Pressure 1014 hPa
Visibility 10 km or more
no clouds below 1500 m and no cumulonimbus

METAR: SPYL 281500Z 15015KT CAVOK 24/17 Q1014 RMK BIRD HAZARD RWY 17/35 PP000

Time: 10:34 (15:34 UTC)

Forecast

The report was made 16 hours and 34 minutes ago, at 23:00 UTC
Forecast valid from 28 at 00 UTC to 28 at 24 UTC
Wind 10 kt from the South/Southwest
Visibility 10 km or more
no clouds below 1500 m and no cumulonimbus
Becoming
from 28 at 09 UTC to 28 at 11 UTC
Wind 17 kt from the Southeast

TAF: SPYL 272300Z 2800/2824 20010KT CAVOK TX26/2818Z TN16/2811Z BECMG 2809/2811 13017KT

Weather observations and forecasts of more than 4000 airports (METAR and TAF reports).

The available stations are represented by yellow and red dots on the map.

Hover mouse over dot to see the name of the station.

Then click to see weather observations and forecasts.

To change the map : click on the green buttons with a black cross to zoom in, on the green button with a dash to zoom out, or on the green arrows for adjacent maps.


METAR-TAF: